NJE236L LFPB-LEPA
Flight info
| Callsign | NJE236L |
|---|---|
| Flight time | 1h 39m |
| Altitude | 35000 |
| Route | ERIXU DCT ETAMO DCT VALKU DCT ATSUP DCT MINSO DCT DEGOL DCT PPG DCT ALBER P84 LORES |
| Aircraft | CL60/M-SBDE1E2E3FGHIJ1J4J5J7M3RWXYZ/LB1V1D1 |
Departure
| Time | 2026-05-06 07:01 |
|---|---|
| Airport | Paris-Le Bourget International Airport (LFPB) |
Arrival
| Time | 2026-05-06 08:41 |
|---|---|
| Airport | Palma de Mallorca Airport (LEPA) |
| Time | Latitude | Longitude | Altitude | Speed | Heading |
|---|---|---|---|---|---|
| 2026-05-06 06:06 | 48.95834 | 2.44288 | 146 ft | 0 kts | 21° |
| 2026-05-06 06:18 | 48.95834 | 2.44287 | 146 ft | 0 kts | 21° |
| 2026-05-06 06:18 | 48.95834 | 2.44288 | 146 ft | 0 kts | 21° |
| 2026-05-06 06:18 | 48.95834 | 2.44287 | 146 ft | 0 kts | 21° |
| 2026-05-06 06:19 | 48.95834 | 2.44288 | 146 ft | 0 kts | 21° |
| 2026-05-06 06:19 | 48.95834 | 2.44287 | 146 ft | 0 kts | 21° |
| 2026-05-06 06:19 | 48.95834 | 2.44288 | 146 ft | 0 kts | 21° |
| 2026-05-06 06:20 | 48.95834 | 2.44287 | 146 ft | 0 kts | 21° |
| 2026-05-06 06:21 | 48.95834 | 2.44288 | 146 ft | 0 kts | 21° |
| 2026-05-06 06:21 | 48.95834 | 2.44287 | 146 ft | 0 kts | 21° |
| 2026-05-06 06:55 | 48.95834 | 2.44288 | 146 ft | 0 kts | 21° |
| 2026-05-06 06:55 | 48.95839 | 2.44291 | 146 ft | 2 kts | 20° |
| 2026-05-06 06:56 | 48.95869 | 2.44295 | 147 ft | 6 kts | 326° |
| 2026-05-06 06:56 | 48.95894 | 2.44221 | 146 ft | 6 kts | 277° |
| 2026-05-06 06:56 | 48.95848 | 2.44168 | 144 ft | 9 kts | 204° |
| 2026-05-06 06:56 | 48.95782 | 2.44122 | 141 ft | 13 kts | 204° |
| 2026-05-06 06:57 | 48.95696 | 2.44051 | 138 ft | 12 kts | 242° |
| 2026-05-06 06:57 | 48.95713 | 2.43938 | 136 ft | 11 kts | 294° |
| 2026-05-06 06:57 | 48.95754 | 2.43803 | 134 ft | 16 kts | 294° |
| 2026-05-06 06:57 | 48.95806 | 2.43631 | 130 ft | 17 kts | 294° |
| 2026-05-06 06:58 | 48.95860 | 2.43455 | 131 ft | 19 kts | 295° |
| 2026-05-06 06:58 | 48.95916 | 2.43269 | 133 ft | 13 kts | 294° |
| 2026-05-06 06:58 | 48.95959 | 2.43134 | 135 ft | 14 kts | 300° |
| 2026-05-06 06:58 | 48.96022 | 2.43006 | 138 ft | 15 kts | 308° |
| 2026-05-06 06:59 | 48.96089 | 2.42878 | 140 ft | 15 kts | 307° |
| 2026-05-06 06:59 | 48.96158 | 2.42747 | 143 ft | 16 kts | 308° |
| 2026-05-06 06:59 | 48.96219 | 2.42631 | 145 ft | 13 kts | 309° |
| 2026-05-06 06:59 | 48.96267 | 2.42537 | 146 ft | 4 kts | 308° |
| 2026-05-06 07:00 | 48.96299 | 2.42502 | 146 ft | 6 kts | 345° |
| 2026-05-06 07:00 | 48.96352 | 2.42483 | 147 ft | 8 kts | 348° |
| 2026-05-06 07:00 | 48.96417 | 2.42463 | 148 ft | 10 kts | 349° |
| 2026-05-06 07:00 | 48.96491 | 2.42484 | 150 ft | 11 kts | 30° |
| 2026-05-06 07:01 | 48.96532 | 2.42578 | 151 ft | 22 kts | 67° |
| 2026-05-06 07:01 | 48.96726 | 2.43299 | 159 ft | 123 kts | 67° |
| 2026-05-06 07:01 | 48.97121 | 2.44790 | 633 ft | 164 kts | 65° |
| 2026-05-06 07:01 | 48.97413 | 2.46481 | 1618 ft | 182 kts | 83° |
| 2026-05-06 07:02 | 48.97349 | 2.48354 | 2778 ft | 185 kts | 89° |
| 2026-05-06 07:02 | 48.97220 | 2.50278 | 3866 ft | 192 kts | 89° |
| 2026-05-06 07:02 | 48.97095 | 2.52420 | 4624 ft | 223 kts | 91° |
| 2026-05-06 07:02 | 48.96904 | 2.54932 | 5329 ft | 254 kts | 92° |
| 2026-05-06 07:03 | 48.96690 | 2.57683 | 6431 ft | 269 kts | 93° |
| 2026-05-06 07:03 | 48.96475 | 2.60493 | 7635 ft | 277 kts | 93° |
| 2026-05-06 07:03 | 48.96254 | 2.63417 | 8846 ft | 284 kts | 94° |
| 2026-05-06 07:03 | 48.96032 | 2.66393 | 10024 ft | 294 kts | 95° |
| 2026-05-06 07:04 | 48.95797 | 2.69571 | 11018 ft | 312 kts | 95° |
| 2026-05-06 07:04 | 48.95554 | 2.72903 | 11866 ft | 331 kts | 96° |
| 2026-05-06 07:04 | 48.95271 | 2.76432 | 12886 ft | 341 kts | 100° |
| 2026-05-06 07:04 | 48.94411 | 2.79781 | 13993 ft | 347 kts | 122° |
| 2026-05-06 07:05 | 48.92876 | 2.82554 | 15064 ft | 351 kts | 140° |
| 2026-05-06 07:05 | 48.90832 | 2.84479 | 16169 ft | 351 kts | 158° |
| 2026-05-06 07:05 | 48.88486 | 2.85327 | 17183 ft | 351 kts | 176° |
| 2026-05-06 07:05 | 48.86050 | 2.84965 | 18064 ft | 354 kts | 196° |
| 2026-05-06 07:06 | 48.83806 | 2.83496 | 18871 ft | 360 kts | 207° |
| 2026-05-06 07:06 | 48.81572 | 2.81745 | 19735 ft | 366 kts | 207° |
| 2026-05-06 07:06 | 48.79285 | 2.79970 | 20651 ft | 369 kts | 207° |
| 2026-05-06 07:06 | 48.77007 | 2.78205 | 21501 ft | 373 kts | 207° |
| 2026-05-06 07:07 | 48.74669 | 2.76396 | 22319 ft | 377 kts | 206° |
| 2026-05-06 07:07 | 48.72354 | 2.74607 | 23066 ft | 382 kts | 206° |
| 2026-05-06 07:07 | 48.69984 | 2.72779 | 23846 ft | 385 kts | 206° |
| 2026-05-06 07:07 | 48.67587 | 2.70932 | 24585 ft | 390 kts | 206° |
| 2026-05-06 07:08 | 48.65132 | 2.69043 | 25225 ft | 396 kts | 206° |
| 2026-05-06 07:08 | 48.62655 | 2.67140 | 25819 ft | 402 kts | 206° |
| 2026-05-06 07:08 | 48.60167 | 2.65231 | 26403 ft | 408 kts | 205° |
| 2026-05-06 07:08 | 48.57616 | 2.63276 | 26963 ft | 413 kts | 205° |
| 2026-05-06 07:09 | 48.55029 | 2.61295 | 27501 ft | 418 kts | 205° |
| 2026-05-06 07:09 | 48.52439 | 2.59315 | 28022 ft | 423 kts | 205° |
| 2026-05-06 07:09 | 48.49802 | 2.57301 | 28523 ft | 427 kts | 205° |
| 2026-05-06 07:09 | 48.47162 | 2.55287 | 29096 ft | 429 kts | 205° |
| 2026-05-06 07:10 | 48.44490 | 2.53251 | 29777 ft | 428 kts | 205° |
| 2026-05-06 07:10 | 48.41861 | 2.51250 | 30457 ft | 427 kts | 205° |
| 2026-05-06 07:10 | 48.39202 | 2.49229 | 31092 ft | 426 kts | 205° |
| 2026-05-06 07:10 | 48.36580 | 2.47238 | 31615 ft | 425 kts | 205° |
| 2026-05-06 07:11 | 48.33962 | 2.45253 | 32130 ft | 423 kts | 205° |
| 2026-05-06 07:11 | 48.31362 | 2.43284 | 32573 ft | 421 kts | 205° |
| 2026-05-06 07:11 | 48.28754 | 2.41311 | 32989 ft | 419 kts | 206° |
| 2026-05-06 07:11 | 48.26151 | 2.39345 | 33390 ft | 417 kts | 206° |
| 2026-05-06 07:12 | 48.23590 | 2.37412 | 33746 ft | 416 kts | 206° |
| 2026-05-06 07:12 | 48.21022 | 2.35478 | 34073 ft | 416 kts | 206° |
| 2026-05-06 07:12 | 48.18405 | 2.33508 | 34420 ft | 415 kts | 205° |
| 2026-05-06 07:12 | 48.15847 | 2.31584 | 34723 ft | 416 kts | 205° |
| 2026-05-06 07:13 | 48.13231 | 2.29626 | 34827 ft | 423 kts | 205° |
| 2026-05-06 07:13 | 48.07610 | 2.26794 | 34848 ft | 438 kts | 189° |
| 2026-05-06 07:14 | 48.01460 | 2.26388 | 34846 ft | 451 kts | 176° |
| 2026-05-06 07:14 | 47.95103 | 2.26792 | 34847 ft | 458 kts | 176° |
| 2026-05-06 07:15 | 47.88762 | 2.27190 | 34847 ft | 458 kts | 176° |
| 2026-05-06 07:15 | 47.82382 | 2.27591 | 34852 ft | 457 kts | 176° |
| 2026-05-06 07:16 | 47.76031 | 2.27990 | 34849 ft | 457 kts | 176° |
| 2026-05-06 07:16 | 47.69683 | 2.28389 | 34853 ft | 457 kts | 176° |
| 2026-05-06 07:17 | 47.63345 | 2.28788 | 34854 ft | 457 kts | 176° |
| 2026-05-06 07:17 | 47.56960 | 2.29188 | 34849 ft | 456 kts | 176° |
| 2026-05-06 07:18 | 47.50618 | 2.29586 | 34841 ft | 456 kts | 177° |
| 2026-05-06 07:18 | 47.44324 | 2.29980 | 34846 ft | 455 kts | 177° |
| 2026-05-06 07:19 | 47.37954 | 2.30378 | 34849 ft | 456 kts | 176° |
| 2026-05-06 07:19 | 47.31646 | 2.30771 | 34853 ft | 456 kts | 177° |
| 2026-05-06 07:20 | 47.25327 | 2.31164 | 34852 ft | 456 kts | 177° |
| 2026-05-06 07:20 | 47.18971 | 2.31559 | 34856 ft | 456 kts | 177° |
| 2026-05-06 07:21 | 47.12612 | 2.31953 | 34853 ft | 456 kts | 177° |
| 2026-05-06 07:21 | 47.06261 | 2.32345 | 34858 ft | 455 kts | 177° |
| 2026-05-06 07:22 | 46.99925 | 2.32736 | 34855 ft | 455 kts | 177° |
| 2026-05-06 07:22 | 46.93597 | 2.33125 | 34850 ft | 455 kts | 177° |
| 2026-05-06 07:23 | 46.87283 | 2.33540 | 34852 ft | 455 kts | 175° |
| 2026-05-06 07:23 | 46.81094 | 2.35465 | 34865 ft | 454 kts | 160° |
| 2026-05-06 07:24 | 46.75209 | 2.38833 | 34861 ft | 455 kts | 158° |
| 2026-05-06 07:24 | 46.69330 | 2.42217 | 34861 ft | 454 kts | 158° |
| 2026-05-06 07:25 | 46.63446 | 2.45600 | 34864 ft | 454 kts | 159° |
| 2026-05-06 07:25 | 46.57607 | 2.48950 | 34863 ft | 454 kts | 159° |
| 2026-05-06 07:26 | 46.51709 | 2.52329 | 34866 ft | 454 kts | 159° |
| 2026-05-06 07:26 | 46.45828 | 2.55690 | 34869 ft | 454 kts | 159° |
| 2026-05-06 07:27 | 46.39978 | 2.59028 | 34864 ft | 454 kts | 159° |
| 2026-05-06 07:27 | 46.34090 | 2.62379 | 34878 ft | 455 kts | 159° |
| 2026-05-06 07:28 | 46.28177 | 2.65738 | 34868 ft | 455 kts | 160° |
| 2026-05-06 07:28 | 46.19350 | 2.70738 | 34864 ft | 455 kts | 160° |
| 2026-05-06 07:29 | 46.13427 | 2.74083 | 34869 ft | 456 kts | 160° |
| 2026-05-06 07:29 | 46.07505 | 2.77421 | 34864 ft | 455 kts | 160° |
| 2026-05-06 07:30 | 46.01601 | 2.80741 | 34878 ft | 455 kts | 160° |
| 2026-05-06 07:30 | 45.95674 | 2.83952 | 34860 ft | 456 kts | 161° |
| 2026-05-06 07:31 | 45.89731 | 2.87088 | 34868 ft | 456 kts | 161° |
| 2026-05-06 07:31 | 45.83729 | 2.90249 | 34871 ft | 455 kts | 162° |
| 2026-05-06 07:32 | 45.77784 | 2.93353 | 34874 ft | 454 kts | 163° |
| 2026-05-06 07:32 | 45.71647 | 2.95083 | 34873 ft | 450 kts | 178° |
| 2026-05-06 07:33 | 45.65402 | 2.95031 | 34873 ft | 449 kts | 182° |
| 2026-05-06 07:33 | 45.59162 | 2.94860 | 34867 ft | 449 kts | 182° |
| 2026-05-06 07:34 | 45.52908 | 2.94691 | 34864 ft | 449 kts | 182° |
| 2026-05-06 07:34 | 45.46678 | 2.94524 | 34864 ft | 449 kts | 183° |
| 2026-05-06 07:35 | 45.40451 | 2.94358 | 34864 ft | 449 kts | 183° |
| 2026-05-06 07:35 | 45.34209 | 2.94192 | 34860 ft | 448 kts | 183° |
| 2026-05-06 07:36 | 45.27961 | 2.94027 | 34868 ft | 448 kts | 183° |
| 2026-05-06 07:36 | 45.21751 | 2.93864 | 34869 ft | 448 kts | 183° |
| 2026-05-06 07:37 | 45.15547 | 2.93701 | 34867 ft | 447 kts | 183° |
| 2026-05-06 07:37 | 45.09327 | 2.93539 | 34876 ft | 447 kts | 183° |
| 2026-05-06 07:38 | 45.03102 | 2.93376 | 34872 ft | 447 kts | 183° |
| 2026-05-06 07:38 | 44.96867 | 2.93214 | 34883 ft | 447 kts | 183° |
| 2026-05-06 07:39 | 44.90651 | 2.93052 | 34882 ft | 447 kts | 184° |
| 2026-05-06 07:39 | 44.84442 | 2.92869 | 34883 ft | 447 kts | 185° |
| 2026-05-06 07:40 | 44.78238 | 2.92423 | 34883 ft | 446 kts | 186° |
| 2026-05-06 07:40 | 44.72032 | 2.91968 | 34885 ft | 445 kts | 186° |
| 2026-05-06 07:41 | 44.65845 | 2.91515 | 34893 ft | 444 kts | 186° |
| 2026-05-06 07:41 | 44.59720 | 2.91067 | 34903 ft | 443 kts | 186° |
| 2026-05-06 07:42 | 44.53547 | 2.90618 | 34914 ft | 443 kts | 186° |
| 2026-05-06 07:42 | 44.47393 | 2.90171 | 34916 ft | 442 kts | 186° |
| 2026-05-06 07:43 | 44.41257 | 2.89725 | 34916 ft | 442 kts | 186° |
| 2026-05-06 07:43 | 44.35102 | 2.89280 | 34918 ft | 442 kts | 186° |
| 2026-05-06 07:44 | 44.28973 | 2.88838 | 34920 ft | 441 kts | 186° |
| 2026-05-06 07:44 | 44.22845 | 2.88396 | 34917 ft | 441 kts | 187° |
| 2026-05-06 07:45 | 44.16692 | 2.87954 | 34924 ft | 440 kts | 187° |
| 2026-05-06 07:45 | 44.13647 | 2.87735 | 34819 ft | 438 kts | 187° |
| 2026-05-06 07:45 | 44.10602 | 2.87517 | 34923 ft | 438 kts | 187° |
| 2026-05-06 07:46 | 44.04480 | 2.87077 | 34926 ft | 442 kts | 187° |
| 2026-05-06 07:46 | 43.98321 | 2.86636 | 34936 ft | 443 kts | 187° |
| 2026-05-06 07:47 | 43.92204 | 2.86201 | 34933 ft | 441 kts | 187° |
| 2026-05-06 07:47 | 43.86077 | 2.85765 | 34940 ft | 439 kts | 187° |
| 2026-05-06 07:48 | 43.79971 | 2.85331 | 34929 ft | 438 kts | 187° |
| 2026-05-06 07:48 | 43.73834 | 2.85221 | 34921 ft | 440 kts | 184° |
| 2026-05-06 07:49 | 43.67726 | 2.85319 | 34928 ft | 440 kts | 184° |
| 2026-05-06 07:49 | 43.61603 | 2.85414 | 34942 ft | 440 kts | 184° |
| 2026-05-06 07:50 | 43.55479 | 2.85507 | 34930 ft | 439 kts | 184° |
| 2026-05-06 07:50 | 43.49396 | 2.85599 | 34942 ft | 439 kts | 184° |
| 2026-05-06 07:51 | 43.43272 | 2.85689 | 34932 ft | 438 kts | 184° |
| 2026-05-06 07:51 | 43.37166 | 2.85779 | 34937 ft | 438 kts | 184° |
| 2026-05-06 07:52 | 43.31099 | 2.85868 | 34944 ft | 437 kts | 185° |
| 2026-05-06 07:52 | 43.25023 | 2.85957 | 34933 ft | 437 kts | 185° |
| 2026-05-06 07:53 | 43.18946 | 2.86044 | 34936 ft | 436 kts | 185° |
| 2026-05-06 07:53 | 43.12853 | 2.86132 | 34934 ft | 436 kts | 185° |
| 2026-05-06 07:54 | 43.06777 | 2.86220 | 34937 ft | 435 kts | 185° |
| 2026-05-06 07:54 | 43.00741 | 2.86306 | 34928 ft | 435 kts | 185° |
| 2026-05-06 07:55 | 42.94635 | 2.86393 | 34936 ft | 435 kts | 185° |
| 2026-05-06 07:55 | 42.88574 | 2.86480 | 34937 ft | 434 kts | 185° |
| 2026-05-06 07:56 | 42.82526 | 2.86566 | 34957 ft | 434 kts | 185° |
| 2026-05-06 07:56 | 42.76554 | 2.86649 | 34955 ft | 434 kts | 185° |
| 2026-05-06 07:57 | 42.70583 | 2.86202 | 34951 ft | 428 kts | 191° |
| 2026-05-06 07:57 | 42.64672 | 2.85493 | 34944 ft | 428 kts | 191° |
| 2026-05-06 07:58 | 42.58724 | 2.84786 | 34961 ft | 428 kts | 191° |
| 2026-05-06 07:58 | 42.52806 | 2.84087 | 34946 ft | 427 kts | 191° |
| 2026-05-06 07:59 | 42.46877 | 2.83388 | 34954 ft | 427 kts | 191° |
| 2026-05-06 07:59 | 42.40945 | 2.82692 | 34954 ft | 426 kts | 191° |
| 2026-05-06 08:00 | 42.35057 | 2.82002 | 34946 ft | 425 kts | 191° |
| 2026-05-06 08:00 | 42.29126 | 2.81310 | 34959 ft | 425 kts | 191° |
| 2026-05-06 08:01 | 42.23251 | 2.80626 | 34934 ft | 424 kts | 191° |
| 2026-05-06 08:01 | 42.17347 | 2.79940 | 34957 ft | 423 kts | 191° |
| 2026-05-06 08:02 | 42.11472 | 2.79259 | 34941 ft | 423 kts | 191° |
| 2026-05-06 08:02 | 42.05603 | 2.78580 | 34949 ft | 423 kts | 191° |
| 2026-05-06 08:03 | 41.99751 | 2.77905 | 34948 ft | 422 kts | 191° |
| 2026-05-06 08:03 | 41.93868 | 2.77227 | 34943 ft | 422 kts | 191° |
| 2026-05-06 08:04 | 41.88020 | 2.76700 | 34948 ft | 424 kts | 190° |
| 2026-05-06 08:04 | 41.82108 | 2.76211 | 34961 ft | 423 kts | 190° |
| 2026-05-06 08:05 | 41.76246 | 2.75727 | 34953 ft | 423 kts | 190° |
| 2026-05-06 08:05 | 41.70390 | 2.75244 | 34951 ft | 423 kts | 190° |
| 2026-05-06 08:06 | 41.64507 | 2.74913 | 34951 ft | 424 kts | 188° |
| 2026-05-06 08:06 | 41.58620 | 2.74668 | 34953 ft | 424 kts | 188° |
| 2026-05-06 08:07 | 41.52715 | 2.74423 | 34950 ft | 424 kts | 188° |
| 2026-05-06 08:07 | 41.46822 | 2.74178 | 34934 ft | 424 kts | 188° |
| 2026-05-06 08:08 | 41.40937 | 2.73934 | 34935 ft | 424 kts | 188° |
| 2026-05-06 08:08 | 41.35033 | 2.73688 | 34941 ft | 424 kts | 188° |
| 2026-05-06 08:09 | 41.29127 | 2.73444 | 34946 ft | 424 kts | 189° |
| 2026-05-06 08:09 | 41.23253 | 2.73201 | 34935 ft | 423 kts | 188° |
| 2026-05-06 08:10 | 41.17348 | 2.72957 | 34947 ft | 423 kts | 188° |
| 2026-05-06 08:10 | 41.11491 | 2.72716 | 34941 ft | 422 kts | 188° |
| 2026-05-06 08:11 | 41.05625 | 2.72474 | 34952 ft | 422 kts | 188° |
| 2026-05-06 08:11 | 40.99754 | 2.72233 | 34943 ft | 422 kts | 189° |
| 2026-05-06 08:12 | 40.93886 | 2.71992 | 34949 ft | 422 kts | 189° |
| 2026-05-06 08:12 | 40.87974 | 2.71749 | 34947 ft | 423 kts | 188° |
| 2026-05-06 08:13 | 40.82093 | 2.71507 | 34949 ft | 423 kts | 188° |
| 2026-05-06 08:13 | 40.76214 | 2.71268 | 34621 ft | 418 kts | 188° |
| 2026-05-06 08:14 | 40.73356 | 2.71154 | 34094 ft | 412 kts | 189° |
| 2026-05-06 08:14 | 40.70495 | 2.71039 | 33576 ft | 406 kts | 189° |
| 2026-05-06 08:14 | 40.67707 | 2.70927 | 33046 ft | 400 kts | 188° |
| 2026-05-06 08:14 | 40.64948 | 2.70816 | 32522 ft | 395 kts | 189° |
| 2026-05-06 08:15 | 40.62227 | 2.70706 | 32002 ft | 390 kts | 189° |
| 2026-05-06 08:15 | 40.59541 | 2.70598 | 31488 ft | 385 kts | 189° |
| 2026-05-06 08:15 | 40.56878 | 2.70490 | 30977 ft | 381 kts | 189° |
| 2026-05-06 08:15 | 40.54217 | 2.70379 | 30478 ft | 383 kts | 189° |
| 2026-05-06 08:16 | 40.51547 | 2.70398 | 29964 ft | 391 kts | 182° |
| 2026-05-06 08:16 | 40.48834 | 2.71223 | 29437 ft | 407 kts | 166° |
| 2026-05-06 08:16 | 40.46261 | 2.72914 | 28862 ft | 417 kts | 159° |
| 2026-05-06 08:16 | 40.43738 | 2.74745 | 28307 ft | 419 kts | 159° |
| 2026-05-06 08:17 | 40.41171 | 2.76598 | 27747 ft | 421 kts | 159° |
| 2026-05-06 08:17 | 40.38609 | 2.78447 | 27190 ft | 423 kts | 158° |
| 2026-05-06 08:17 | 40.36012 | 2.80321 | 26623 ft | 422 kts | 158° |
| 2026-05-06 08:17 | 40.33453 | 2.82169 | 26067 ft | 417 kts | 158° |
| 2026-05-06 08:18 | 40.30949 | 2.83977 | 25512 ft | 411 kts | 158° |
| 2026-05-06 08:18 | 40.28473 | 2.85765 | 24980 ft | 404 kts | 158° |
| 2026-05-06 08:18 | 40.26012 | 2.87539 | 24435 ft | 398 kts | 158° |
| 2026-05-06 08:18 | 40.23611 | 2.89268 | 23911 ft | 392 kts | 158° |
| 2026-05-06 08:19 | 40.21256 | 2.90965 | 23401 ft | 387 kts | 158° |
| 2026-05-06 08:19 | 40.18904 | 2.92661 | 22883 ft | 382 kts | 158° |
| 2026-05-06 08:19 | 40.16591 | 2.94215 | 22291 ft | 373 kts | 165° |
| 2026-05-06 08:19 | 40.14112 | 2.94936 | 21490 ft | 362 kts | 183° |
| 2026-05-06 08:20 | 40.11646 | 2.94586 | 20728 ft | 352 kts | 200° |
| 2026-05-06 08:20 | 40.09396 | 2.93434 | 20027 ft | 345 kts | 208° |
| 2026-05-06 08:20 | 40.07232 | 2.92129 | 19358 ft | 343 kts | 208° |
| 2026-05-06 08:20 | 40.05080 | 2.90841 | 18730 ft | 340 kts | 208° |
| 2026-05-06 08:21 | 40.02942 | 2.89564 | 18106 ft | 336 kts | 208° |
| 2026-05-06 08:21 | 40.00853 | 2.88319 | 17671 ft | 328 kts | 208° |
| 2026-05-06 08:21 | 39.98778 | 2.87081 | 17218 ft | 327 kts | 208° |
| 2026-05-06 08:21 | 39.96748 | 2.85873 | 16794 ft | 320 kts | 208° |
| 2026-05-06 08:22 | 39.94733 | 2.84674 | 16367 ft | 313 kts | 208° |
| 2026-05-06 08:22 | 39.92784 | 2.83516 | 15958 ft | 307 kts | 208° |
| 2026-05-06 08:22 | 39.90874 | 2.82381 | 15563 ft | 301 kts | 208° |
| 2026-05-06 08:22 | 39.88969 | 2.81251 | 15165 ft | 296 kts | 208° |
| 2026-05-06 08:23 | 39.87122 | 2.80155 | 14780 ft | 291 kts | 208° |
| 2026-05-06 08:23 | 39.85298 | 2.79073 | 14402 ft | 287 kts | 208° |
| 2026-05-06 08:23 | 39.83489 | 2.78001 | 14024 ft | 282 kts | 208° |
| 2026-05-06 08:23 | 39.81720 | 2.76953 | 13656 ft | 280 kts | 208° |
| 2026-05-06 08:24 | 39.79929 | 2.75892 | 13277 ft | 281 kts | 208° |
| 2026-05-06 08:24 | 39.78143 | 2.74834 | 12899 ft | 280 kts | 208° |
| 2026-05-06 08:24 | 39.76371 | 2.73786 | 12574 ft | 281 kts | 208° |
| 2026-05-06 08:24 | 39.74595 | 2.72736 | 12185 ft | 281 kts | 208° |
| 2026-05-06 08:25 | 39.72820 | 2.71685 | 11809 ft | 279 kts | 208° |
| 2026-05-06 08:25 | 39.71265 | 2.70294 | 11439 ft | 272 kts | 230° |
| 2026-05-06 08:25 | 39.70154 | 2.68318 | 11063 ft | 270 kts | 237° |
| 2026-05-06 08:25 | 39.69094 | 2.66285 | 10690 ft | 271 kts | 237° |
| 2026-05-06 08:26 | 39.68039 | 2.64276 | 10337 ft | 270 kts | 237° |
| 2026-05-06 08:26 | 39.66982 | 2.62267 | 9982 ft | 270 kts | 237° |
| 2026-05-06 08:26 | 39.65930 | 2.60267 | 9701 ft | 270 kts | 237° |
| 2026-05-06 08:26 | 39.64860 | 2.58234 | 9306 ft | 270 kts | 237° |
| 2026-05-06 08:27 | 39.63817 | 2.56254 | 8960 ft | 266 kts | 237° |
| 2026-05-06 08:27 | 39.62787 | 2.54300 | 8608 ft | 261 kts | 237° |
| 2026-05-06 08:27 | 39.61763 | 2.52359 | 8261 ft | 257 kts | 236° |
| 2026-05-06 08:27 | 39.60769 | 2.50475 | 7919 ft | 254 kts | 236° |
| 2026-05-06 08:28 | 39.59774 | 2.48590 | 7584 ft | 250 kts | 236° |
| 2026-05-06 08:28 | 39.58796 | 2.46739 | 7253 ft | 247 kts | 236° |
| 2026-05-06 08:28 | 39.57840 | 2.44937 | 6947 ft | 244 kts | 236° |
| 2026-05-06 08:28 | 39.56815 | 2.43173 | 6585 ft | 244 kts | 226° |
| 2026-05-06 08:29 | 39.55419 | 2.41952 | 6168 ft | 245 kts | 202° |
| 2026-05-06 08:29 | 39.53761 | 2.41608 | 5777 ft | 247 kts | 177° |
| 2026-05-06 08:29 | 39.52114 | 2.42248 | 5294 ft | 251 kts | 150° |
| 2026-05-06 08:29 | 39.50697 | 2.43531 | 5023 ft | 244 kts | 144° |
| 2026-05-06 08:30 | 39.49361 | 2.44785 | 5007 ft | 233 kts | 145° |
| 2026-05-06 08:30 | 39.49003 | 2.45119 | 5006 ft | 235 kts | 144° |
| 2026-05-06 08:35 | 39.48112 | 2.45951 | 5009 ft | 237 kts | 144° |
| 2026-05-06 08:35 | 39.46771 | 2.47204 | 4898 ft | 240 kts | 144° |
| 2026-05-06 08:36 | 39.45501 | 2.48546 | 4668 ft | 236 kts | 130° |
| 2026-05-06 08:36 | 39.44957 | 2.50417 | 4402 ft | 217 kts | 89° |
| 2026-05-06 08:36 | 39.45433 | 2.52162 | 4058 ft | 203 kts | 58° |
| 2026-05-06 08:36 | 39.46183 | 2.53646 | 3468 ft | 193 kts | 56° |
| 2026-05-06 08:37 | 39.46902 | 2.55061 | 2792 ft | 186 kts | 56° |
| 2026-05-06 08:37 | 39.47611 | 2.56322 | 2651 ft | 164 kts | 53° |
| 2026-05-06 08:37 | 39.48257 | 2.57517 | 2406 ft | 152 kts | 57° |
| 2026-05-06 08:37 | 39.48787 | 2.58598 | 2235 ft | 137 kts | 58° |
| 2026-05-06 08:38 | 39.49279 | 2.59624 | 2027 ft | 131 kts | 57° |
| 2026-05-06 08:38 | 39.49753 | 2.60614 | 1865 ft | 128 kts | 58° |
| 2026-05-06 08:38 | 39.50223 | 2.61583 | 1704 ft | 127 kts | 57° |
| 2026-05-06 08:38 | 39.50686 | 2.62565 | 1551 ft | 127 kts | 58° |
| 2026-05-06 08:39 | 39.51139 | 2.63532 | 1383 ft | 127 kts | 58° |
| 2026-05-06 08:39 | 39.51599 | 2.64503 | 1206 ft | 126 kts | 57° |
| 2026-05-06 08:39 | 39.52062 | 2.65464 | 1050 ft | 126 kts | 57° |
| 2026-05-06 08:39 | 39.52524 | 2.66442 | 895 ft | 127 kts | 59° |
| 2026-05-06 08:40 | 39.52987 | 2.67438 | 717 ft | 129 kts | 58° |
| 2026-05-06 08:40 | 39.53466 | 2.68420 | 554 ft | 129 kts | 58° |
| 2026-05-06 08:40 | 39.53934 | 2.69413 | 373 ft | 128 kts | 60° |
| 2026-05-06 08:40 | 39.54395 | 2.70394 | 207 ft | 128 kts | 59° |
| 2026-05-06 08:41 | 39.54854 | 2.71367 | 45 ft | 121 kts | 58° |
| 2026-05-06 08:41 | 39.55217 | 2.72129 | 41 ft | 70 kts | 58° |
| 2026-05-06 08:41 | 39.55419 | 2.72559 | 41 ft | 39 kts | 59° |
| 2026-05-06 08:41 | 39.55488 | 2.72803 | 41 ft | 27 kts | 82° |
| 2026-05-06 08:42 | 39.55496 | 2.73020 | 41 ft | 10 kts | 89° |
| 2026-05-06 08:42 | 39.55498 | 2.73134 | 41 ft | 14 kts | 89° |
| 2026-05-06 08:42 | 39.55535 | 2.73252 | 41 ft | 15 kts | 58° |
| 2026-05-06 08:42 | 39.55600 | 2.73387 | 41 ft | 19 kts | 58° |
| 2026-05-06 08:43 | 39.55624 | 2.73489 | 41 ft | 11 kts | 129° |
| 2026-05-06 08:43 | 39.55548 | 2.73553 | 41 ft | 14 kts | 148° |
| 2026-05-06 08:43 | 39.55449 | 2.73631 | 41 ft | 18 kts | 148° |
| 2026-05-06 08:43 | 39.55335 | 2.73721 | 41 ft | 19 kts | 149° |
| 2026-05-06 08:44 | 39.55210 | 2.73820 | 41 ft | 22 kts | 149° |
| 2026-05-06 08:44 | 39.55097 | 2.73909 | 41 ft | 14 kts | 149° |
| 2026-05-06 08:44 | 39.55001 | 2.73985 | 41 ft | 17 kts | 149° |
| 2026-05-06 08:44 | 39.54888 | 2.74075 | 41 ft | 14 kts | 148° |
| 2026-05-06 08:45 | 39.54791 | 2.74120 | 41 ft | 15 kts | 213° |
| 2026-05-06 08:45 | 39.54722 | 2.73987 | 40 ft | 19 kts | 239° |
| 2026-05-06 08:45 | 39.54645 | 2.73823 | 40 ft | 22 kts | 238° |
| 2026-05-06 08:45 | 39.54566 | 2.73655 | 40 ft | 21 kts | 238° |
| 2026-05-06 08:46 | 39.54481 | 2.73476 | 40 ft | 24 kts | 239° |
| 2026-05-06 08:46 | 39.54401 | 2.73307 | 40 ft | 21 kts | 239° |
| 2026-05-06 08:46 | 39.54328 | 2.73154 | 40 ft | 17 kts | 238° |
| 2026-05-06 08:46 | 39.54257 | 2.73005 | 40 ft | 21 kts | 238° |
| 2026-05-06 08:47 | 39.54213 | 2.72886 | 39 ft | 14 kts | 275° |
| 2026-05-06 08:47 | 39.54183 | 2.72787 | 39 ft | 14 kts | 239° |
| 2026-05-06 08:47 | 39.54152 | 2.72721 | 39 ft | 8 kts | 238° |
| 2026-05-06 08:47 | 39.54147 | 2.72675 | 39 ft | 6 kts | 305° |
| 2026-05-06 08:48 | 39.54162 | 2.72646 | 39 ft | 2 kts | 275° |
| 2026-05-06 08:48 | 39.54140 | 2.72628 | 39 ft | 4 kts | 197° |
| 2026-05-06 08:48 | 39.54135 | 2.72626 | 39 ft | 0 kts | 198° |